YO8KGT-13 Weather Reports


time (UTC)temp
C
wind
direction
speed
KPH
gust
KPH
rain 1hr
cm
rain 24hr
cm
rain mn
cm
humidity
%
barometer
mb
20260903184413 17 315 0.0 0.0 0.00 0.00 0.00 70 948.0
20260903183913 17 315 0.0 0.0 0.00 0.00 0.00 69 948.0
20260903183413 17 315 0.0 0.0 0.00 0.00 0.00 69 948.0
20260903182926 17 315 0.0 0.0 0.00 0.00 0.00 69 948.0
20260903182414 17 315 0.0 0.0 0.00 0.00 0.00 69 948.0
20260903181912 17 315 0.0 0.0 0.00 0.00 0.00 68 948.0
20260903181413 17 315 0.0 0.0 0.00 0.00 0.00 67 948.0
20260903180912 17 315 0.0 0.0 0.00 0.00 0.00 67 948.0
20260903180440 17 315 0.0 0.0 0.00 0.00 0.00 66 948.0
20260903175914 18 315 0.0 0.0 0.00 0.00 0.00 66 948.0
20260903175422 18 315 0.0 0.0 0.00 0.00 0.00 66 948.0
20260903174913 18 338 0.0 0.0 0.00 0.00 0.00 66 948.0
20260903174418 18 0 0.0 0.0 0.00 0.00 0.00 66 948.0
20260903173912 18 0 0.0 0.0 0.00 0.00 0.00 65 948.0
20260903173412 18 0 0.0 0.0 0.00 0.00 0.00 65 948.0
20260903172938 18 0 0.0 0.0 0.00 0.00 0.00 64 948.0
20260903172413 18 0 0.0 0.0 0.00 0.00 0.00 64 948.0
20260903171936 18 0 0.0 0.0 0.00 0.00 0.00 64 948.0
20260903171413 18 0 0.0 0.0 0.00 0.00 0.00 63 948.0
20260903170918 18 0 0.0 3.2 0.00 0.00 0.00 63 948.0
20260903170413 18 0 0.0 3.2 0.00 0.00 0.00 63 948.0
20260903165914 18 0 0.0 3.2 0.00 0.00 0.00 63 948.0
20260903165239 18 0 3.2 3.2 0.00 0.00 0.00 63 948.0
20260903164740 18 22 0.0 0.0 0.00 0.00 0.00 63 948.0
20260903164303 19 22 0.0 0.0 0.00 0.00 0.00 62 948.0
20260903163739 19 22 0.0 4.8 0.00 0.00 0.00 62 948.0
20260903163258 19 22 0.0 6.4 0.00 0.00 0.00 61 947.0
20260903162739 20 22 0.0 6.4 0.00 0.00 0.00 61 947.0
20260903162240 20 22 4.8 6.4 0.00 0.00 0.00 59 947.0
20260903161740 20 22 1.6 3.2 0.00 0.00 0.00 58 948.0
20260903161240 21 22 1.6 9.7 0.00 0.00 0.00 57 948.0
20260903160740 21 0 0.0 9.7 0.00 0.00 0.00 56 948.0
20260903160240 21 0 0.0 9.7 0.00 0.00 0.00 54 948.0
20260903155756 22 0 9.7 9.7 0.00 0.00 0.00 53 948.0
20260903155240 22 315 0.0 0.0 0.00 0.00 0.00 52 948.0
20260903154742 22 315 0.0 0.0 0.00 0.00 0.00 52 947.0
20260903154240 22 315 0.0 0.0 0.00 0.00 0.00 51 947.0
20260903153740 22 315 0.0 0.0 0.00 0.00 0.00 51 947.0
20260903153240 22 315 0.0 0.0 0.00 0.00 0.00 51 947.0
20260903152740 22 315 0.0 0.0 0.00 0.00 0.00 51 947.0
20260903152256 23 315 0.0 0.0 0.00 0.00 0.00 51 947.0
20260903151741 23 315 0.0 0.0 0.00 0.00 0.00 51 947.0
20260903151251 23 315 0.0 0.0 0.00 0.00 0.00 51 947.0
20260903150740 23 315 0.0 0.0 0.00 0.00 0.00 50 947.0
20260903150239 23 315 0.0 0.0 0.00 24.97 0.00 50 947.0
20260903145810 23 315 0.0 0.0 0.00 0.00 0.00 50 947.0
20260903145240 23 315 0.0 0.0 0.00 0.00 0.00 50 947.0
20260903144804 23 315 0.0 0.0 0.00 0.00 0.00 49 947.0
20260903144239 23 315 0.0 0.0 0.00 0.00 0.00 49 947.0
20260903143750 23 315 0.0 0.0 0.00 0.00 0.00 48 947.0
20260903143248 23 315 0.0 0.0 0.00 0.00 0.00 47 947.0
20260903142744 23 315 0.0 0.0 0.00 0.00 0.00 46 947.0
20260903142240 23 315 0.0 0.0 0.00 0.00 0.00 46 947.0
20260903141739 24 315 0.0 0.0 0.00 0.00 0.00 45 947.0
20260903141304 24 315 0.0 0.0 0.00 0.00 0.00 45 947.0
20260903140802 24 315 0.0 0.0 0.00 0.00 0.00 45 947.0
20260903140300 24 315 0.0 0.0 0.00 0.00 0.00 44 947.0
20260903135741 25 315 0.0 0.0 0.00 0.00 0.00 44 947.0
20260903135246 25 315 0.0 0.0 0.00 0.00 0.00 44 947.0
20260903134740 25 315 0.0 0.0 0.00 0.00 0.00 44 947.0
20260903134320 25 315 0.0 0.0 0.00 0.00 0.00 44 947.0
20260903133740 25 315 0.0 0.0 0.00 0.00 0.00 43 947.0
20260903133240 26 315 0.0 0.0 0.00 0.00 0.00 44 947.0
20260903132801 26 315 0.0 0.0 0.00 0.00 0.00 44 947.0
20260903132240 26 315 0.0 0.0 0.00 0.00 0.00 44 947.0
20260903131838 26 315 0.0 0.0 0.00 0.00 0.00 43 947.0
20260903131239 26 315 0.0 0.0 0.00 0.00 0.00 43 947.0
20260903130741 26 338 0.0 0.0 0.00 0.00 0.00 43 947.0
20260903130239 26 338 0.0 3.2 0.00 0.00 0.00 43 947.0
20260903125739 26 315 0.0 3.2 0.00 0.00 0.00 43 947.0
20260903125240 26 315 0.0 3.2 0.00 0.00 0.00 42 947.0
20260903124740 26 338 0.0 0.0 0.00 0.00 0.00 42 947.0
20260903124257 27 338 0.0 0.0 0.00 0.00 0.00 42 948.0
20260903123739 27 338 0.0 0.0 0.00 0.00 0.00 42 947.0
20260903123241 27 338 0.0 0.0 0.00 0.00 0.00 42 948.0
20260903122740 27 338 0.0 0.0 0.00 0.00 0.00 42 948.0
20260903122240 27 338 0.0 0.0 0.00 0.00 0.00 43 947.0
20260903121741 28 315 0.0 0.0 0.00 0.00 0.00 43 948.0
20260903121240 28 315 0.0 0.0 0.00 0.00 0.00 43 948.0
20260903120757 28 315 0.0 0.0 0.00 0.00 0.00 43 948.0
20260903120240 27 315 0.0 0.0 0.00 0.00 0.00 43 948.0
20260903115752 28 315 0.0 0.0 0.00 0.00 0.00 43 948.0
20260903115239 28 315 0.0 0.0 0.00 0.00 0.00 42 948.0
20260903114740 28 315 0.0 0.0 0.00 0.00 0.00 43 948.0
20260903114240 28 292 0.0 0.0 0.00 0.00 0.00 43 948.0
20260903113739 28 0 0.0 0.0 0.00 0.00 0.00 43 948.0
20260903113306 28 292 0.0 0.0 0.00 0.00 0.00 44 948.0
20260903112740 28 315 0.0 0.0 0.00 0.00 0.00 45 948.0
20260903112253 28 292 0.0 0.0 0.00 0.00 0.00 46 948.0
20260903111740 27 292 0.0 1.6 0.00 0.00 0.00 46 948.0
20260903111248 27 0 0.0 1.6 0.00 0.00 0.00 46 948.0
20260903110740 27 0 0.0 1.6 0.00 0.00 0.00 45 949.0
20260903110240 27 0 0.0 0.0 0.00 0.00 0.00 46 949.0
20260903105738 27 0 0.0 0.0 0.00 0.00 0.00 47 949.0
20260903105239 27 0 0.0 0.0 0.00 0.00 0.00 48 949.0
20260903104806 27 0 0.0 0.0 0.00 0.00 0.00 48 949.0
20260903104239 27 0 0.0 0.0 0.00 0.00 0.00 48 949.0
20260903103749 27 0 0.0 0.0 0.00 0.00 0.00 49 949.0
20260903103239 27 0 0.0 0.0 0.00 0.00 0.00 49 949.0
20260903102739 27 0 0.0 0.0 0.00 0.00 0.00 49 949.0
20260903102240 27 0 0.0 0.0 0.00 0.00 0.00 50 949.0
20260903101739 27 0 0.0 0.0 0.00 0.00 0.00 50 949.0
20260903101306 27 0 0.0 0.0 0.00 0.00 0.00 50 949.0
20260903100739 27 0 0.0 0.0 0.00 0.00 0.00 51 949.0
20260903100251 27 0 0.0 0.0 0.00 0.00 0.00 51 949.0
20260903095740 27 338 0.0 0.0 0.00 0.00 0.00 52 949.0
20260903095247 27 0 0.0 0.0 0.00 0.00 0.00 54 949.0
20260903094739 27 0 0.0 0.0 0.00 0.00 0.00 55 949.0
20260903094239 26 0 0.0 0.0 0.00 0.00 0.00 56 950.0
20260903093805 26 0 0.0 4.8 0.00 0.00 0.00 57 950.0
20260903093239 26 0 0.0 4.8 0.00 0.00 0.00 58 950.0
20260903092802 26 0 0.0 4.8 0.00 0.00 0.00 60 950.0
20260903092240 25 338 0.0 0.0 0.00 0.00 0.00 62 950.0
20260903091746 25 338 0.0 0.0 0.00 0.00 0.00 62 950.0
20260903091239 24 338 0.0 0.0 0.00 0.00 0.00 63 950.0
20260903090741 24 338 0.0 0.0 0.00 0.00 0.00 64 950.0
20260903090240 23 338 0.0 0.0 0.00 0.00 0.00 64 950.0
20260903085740 24 338 0.0 0.0 0.00 0.00 0.00 63 950.0
20260903085305 24 338 0.0 0.0 0.00 0.00 0.00 63 950.0
20260903084740 25 338 0.0 0.0 0.00 0.00 0.00 64 950.0
20260903084259 25 338 0.0 0.0 0.00 0.00 0.00 64 950.0
20260903083738 24 338 0.0 0.0 0.00 0.00 0.00 65 950.0
20260903083244 24 338 0.0 0.0 0.00 0.00 0.00 67 950.0
20260903082738 23 338 0.0 0.0 0.00 0.00 0.00 68 950.0
20260903082239 23 338 0.0 0.0 0.00 0.00 0.00 69 950.0
20260903081739 23 338 0.0 0.0 0.00 0.00 0.00 71 950.0
20260903081240 23 338 0.0 0.0 0.00 0.00 0.00 72 950.0
20260903080757 22 338 0.0 0.0 0.00 0.00 0.00 74 950.0
20260903080238 22 338 0.0 0.0 0.00 0.00 0.00 76 950.0
20260903075742 22 338 0.0 0.0 0.00 0.00 0.00 77 950.0
20260903075238 21 315 0.0 0.0 0.00 0.00 0.00 78 950.0
20260903074740 21 315 0.0 0.0 0.00 0.00 0.00 80 950.0
20260903074238 21 292 0.0 0.0 0.00 0.00 0.00 81 950.0
20260903073740 21 292 0.0 0.0 0.00 0.00 0.00 82 950.0
20260903073259 20 292 0.0 0.0 0.00 0.00 0.00 82 950.0
20260903072739 20 292 0.0 0.0 0.00 0.00 0.00 83 950.0
20260903072255 20 292 0.0 0.0 0.00 0.00 0.00 83 950.0
20260903071740 20 292 0.0 0.0 0.00 0.00 0.00 84 950.0
20260903071239 19 292 0.0 0.0 0.00 0.00 0.00 84 950.0
20260903070739 18 292 0.0 0.0 0.00 0.00 0.00 85 950.0
20260903070239 18 292 0.0 0.0 0.00 0.00 0.00 85 950.0
20260903065738 18 292 0.0 0.0 0.00 0.00 0.00 85 950.0
20260903065239 18 292 0.0 0.0 0.00 0.00 0.00 85 950.0
20260903064757 17 292 0.0 0.0 0.00 0.00 0.00 85 950.0
20260903064253 17 292 0.0 0.0 0.00 0.00 0.00 86 950.0
20260903063751 17 292 0.0 0.0 0.00 0.00 0.00 86 950.0
20260903063240 17 292 0.0 0.0 0.00 0.00 0.00 86 950.0
20260903062739 16 292 0.0 0.0 0.00 0.00 0.00 85 950.0
20260903062239 16 292 0.0 0.0 0.00 0.00 0.00 85 950.0
20260903061809 16 292 0.0 0.0 0.00 0.00 0.00 86 950.0
20260903061305 16 292 0.0 0.0 0.00 0.00 0.00 86 950.0
20260903060739 16 292 0.0 0.0 0.00 0.00 0.00 86 950.0
20260903060251 15 292 0.0 0.0 0.00 0.00 0.00 86 950.0
20260903055740 15 292 0.0 0.0 0.00 0.00 0.00 85 950.0
20260903055326 15 292 0.0 0.0 0.00 0.00 0.00 85 950.0
20260903054740 15 292 0.0 0.0 0.00 0.00 0.00 85 950.0
20260903054239 15 292 0.0 0.0 0.00 0.00 0.00 85 950.0
20260903053807 15 292 0.0 0.0 0.00 0.00 0.00 85 950.0
20260903053240 15 292 0.0 0.0 0.00 0.00 0.00 85 950.0
20260903052842 15 292 0.0 0.0 0.00 0.00 0.00 85 950.0
20260903052239 15 292 0.0 0.0 0.00 0.00 0.00 84 950.0
20260903051748 15 292 0.0 0.0 0.00 0.00 0.00 84 950.0
20260903051240 15 292 0.0 0.0 0.00 0.00 0.00 84 950.0
20260903050739 15 292 0.0 0.0 0.00 0.00 0.00 84 950.0
20260903050238 15 292 0.0 0.0 0.00 0.00 0.00 84 950.0
20260903045740 15 292 0.0 0.0 0.00 0.00 0.00 84 950.0
20260903045306 15 292 0.0 0.0 0.00 0.00 0.00 84 950.0
20260903044739 15 292 0.0 0.0 0.00 0.00 0.00 84 950.0
20260903044251 15 292 0.0 0.0 0.00 0.00 0.00 84 950.0
20260903043739 15 292 0.0 0.0 0.00 0.00 0.00 84 950.0
20260903043245 15 292 0.0 0.0 0.00 0.00 0.00 84 950.0
20260903042738 15 292 0.0 0.0 0.00 0.00 0.00 84 950.0
20260903042239 15 292 0.0 0.0 0.00 0.00 0.00 84 950.0
20260903041804 15 292 0.0 0.0 0.00 0.00 0.00 84 950.0
20260903041239 15 292 0.0 0.0 0.00 0.00 0.00 84 950.0
20260903040800 15 292 0.0 0.0 0.00 0.00 0.00 84 950.0
20260903040238 15 0 0.0 0.0 0.00 0.00 0.00 83 950.0
20260903035746 15 292 0.0 0.0 0.00 0.00 0.00 83 950.0
20260903035239 15 292 0.0 0.0 0.00 0.00 0.00 83 950.0
20260903034742 15 292 0.0 0.0 0.00 0.00 0.00 84 950.0
20260903034239 15 292 0.0 0.0 0.00 0.00 0.00 84 950.0
20260903033740 15 292 0.0 0.0 0.00 0.00 0.00 84 950.0
20260903033302 15 292 0.0 0.0 0.00 0.00 0.00 84 950.0
20260903032739 15 292 0.0 0.0 0.00 0.00 0.00 83 950.0
20260903032257 15 292 0.0 0.0 0.00 0.00 0.00 83 950.0
20260903031738 15 292 0.0 0.0 0.00 0.00 0.00 83 950.0
20260903031241 15 292 0.0 0.0 0.00 0.00 0.00 83 950.0
20260903030739 15 292 0.0 0.0 0.00 0.00 0.00 83 950.0
20260903030238 15 292 0.0 0.0 0.00 0.00 0.00 83 950.0
20260903025739 15 292 0.0 0.0 0.00 0.00 0.00 83 950.0
20260903025239 15 292 0.0 0.0 0.00 0.00 0.00 83 950.0
20260903024758 15 292 0.0 0.0 0.00 0.00 0.00 82 950.0
20260903024239 15 292 0.0 0.0 0.00 0.00 0.00 82 950.0
20260903023742 15 292 0.0 0.0 0.00 0.00 0.00 82 950.0
20260903023238 15 292 0.0 0.0 0.00 0.00 0.00 82 950.0
20260903022740 15 292 0.0 0.0 0.00 0.00 0.00 82 950.0
20260903022239 15 292 0.0 0.0 0.00 0.00 0.00 82 950.0
20260903021739 15 292 0.0 0.0 0.00 0.00 0.00 82 950.0
20260903021259 15 292 0.0 0.0 0.00 0.00 0.00 81 950.0
20260903020739 15 292 0.0 0.0 0.00 0.00 0.00 81 950.0
20260903020255 15 292 0.0 0.0 0.00 0.00 0.00 81 950.0
20260903015739 15 292 0.0 0.0 0.00 0.00 0.00 81 950.0
20260903015240 15 292 0.0 0.0 0.00 0.00 0.00 80 950.0
20260903014738 15 292 0.0 0.0 0.00 0.00 0.00 80 950.0
20260903014238 15 292 0.0 0.0 0.00 0.00 0.00 80 950.0
20260903013738 15 292 0.0 0.0 0.00 0.00 0.00 80 950.0
20260903013238 15 292 0.0 0.0 0.00 0.00 0.00 80 950.0
20260903012757 15 292 0.0 0.0 0.00 0.00 0.00 80 950.0
20260903012239 16 292 0.0 0.0 0.00 0.00 0.00 80 950.0
20260903011754 16 292 0.0 0.0 0.00 0.00 0.00 80 950.0
20260903011239 16 292 0.0 0.0 0.00 0.00 0.00 80 950.0
20260903010738 16 292 0.0 0.0 0.00 0.00 0.00 80 950.0
20260903010238 16 292 0.0 0.0 0.00 0.00 0.00 80 950.0
20260903005740 16 292 0.0 0.0 0.00 0.00 0.00 80 950.0
20260903005238 16 292 0.0 0.0 0.00 0.00 0.00 80 950.0
20260903004738 16 292 0.0 0.0 0.00 0.00 0.00 80 950.0
20260903004256 16 292 0.0 0.0 0.00 0.00 0.00 80 950.0
20260903003739 16 292 0.0 0.0 0.00 0.00 0.00 80 950.0
20260903003241 16 292 0.0 0.0 0.00 0.00 0.00 81 950.0
20260903002738 16 292 0.0 0.0 0.00 0.00 0.00 81 950.0
20260903002238 16 292 0.0 0.0 0.00 0.00 0.00 81 950.0
20260903001738 16 292 0.0 0.0 0.00 0.00 0.00 81 950.0
20260903001238 16 292 0.0 0.0 0.00 0.00 0.00 81 950.0
20260903000756 16 292 0.0 0.0 0.00 0.00 0.00 82 950.0
20260903000240 16 292 0.0 0.0 0.00 0.00 0.00 82 950.0
20260902235752 16 292 0.0 0.0 0.00 0.00 0.00 82 950.0
20260902235239 17 292 0.0 0.0 0.00 0.00 0.00 82 950.0
20260902234738 17 292 0.0 0.0 0.00 0.00 0.00 82 950.0
20260902234312 17 292 0.0 0.0 0.00 0.00 0.00 82 950.0
20260902233739 17 292 0.0 0.0 0.00 0.00 0.00 82 950.0
20260902233304 17 292 0.0 0.0 0.00 0.00 0.00 82 950.0
20260902232737 17 292 0.0 0.0 0.00 0.00 0.00 82 950.0
20260902232250 17 292 0.0 0.0 0.00 0.00 0.00 82 950.0
20260902231749 17 292 0.0 0.0 0.00 0.00 0.00 82 950.0
20260902231246 17 270 0.0 0.0 0.00 0.00 0.00 82 950.0
20260902230739 17 270 0.0 0.0 0.00 0.00 0.00 82 950.0
20260902230239 17 270 0.0 1.6 0.00 0.00 0.00 82 950.0
20260902225805 17 270 0.0 1.6 0.00 0.00 0.00 82 950.0
20260902225306 17 270 0.0 1.6 0.00 0.00 0.00 82 950.0
20260902224803 17 270 1.6 1.6 0.00 0.00 0.00 82 950.0
20260902224238 17 0 0.0 0.0 0.00 0.00 0.00 82 950.0
20260902223747 17 0 0.0 0.0 0.00 0.00 0.00 82 950.0
20260902223238 17 0 0.0 0.0 0.00 0.00 0.00 82 950.0
20260902222821 17 0 0.0 0.0 0.00 0.00 0.00 82 950.0
20260902222238 17 0 0.0 0.0 0.00 0.00 0.00 81 950.0
20260902221739 17 0 0.0 0.0 0.00 0.00 0.00 81 950.0
20260902221303 17 0 0.0 0.0 0.00 0.00 0.00 81 950.0
20260902220738 17 0 0.0 0.0 0.00 0.00 0.00 81 950.0
20260902220338 17 0 0.0 0.0 0.00 0.00 0.00 81 950.0
20260902215738 17 0 0.0 0.0 0.00 0.00 0.00 81 950.0
20260902215247 17 0 0.0 0.0 0.00 0.00 0.00 81 950.0
20260902214738 17 0 0.0 0.0 0.00 0.00 0.00 81 950.0
20260902214238 17 0 0.0 0.0 0.00 0.00 0.00 81 950.0
20260902213738 17 0 0.0 0.0 0.00 0.00 0.00 81 950.0
20260902213239 17 0 0.0 0.0 0.00 0.00 0.00 81 950.0
20260902212804 17 0 0.0 0.0 0.00 0.00 0.00 81 950.0
20260902212237 17 0 0.0 0.0 0.00 0.00 0.00 80 950.0
20260902211748 17 0 0.0 0.0 0.00 0.00 0.00 80 950.0
20260902211238 17 0 0.0 0.0 0.00 0.00 0.00 80 950.0
20260902210742 17 0 0.0 0.0 0.00 0.00 0.00 80 950.0
20260902210239 17 0 0.0 0.0 0.00 0.00 0.00 80 950.0
20260902205737 17 0 0.0 0.0 0.00 0.00 0.00 79 950.0
20260902205306 17 0 0.0 0.0 0.00 0.00 0.00 79 950.0
20260902204739 17 0 0.0 0.0 0.00 0.00 0.00 79 950.0
20260902204259 17 0 0.0 0.0 0.00 0.00 0.00 79 950.0
20260902203739 17 0 0.0 0.0 0.00 0.00 0.00 79 950.0
20260902203243 17 0 0.0 0.0 0.00 0.00 0.00 79 950.0
20260902202738 18 0 0.0 0.0 0.00 0.00 0.00 78 950.0
20260902202242 18 0 0.0 0.0 0.00 0.00 0.00 78 950.0
20260902201738 18 0 0.0 0.0 0.00 0.00 0.00 78 950.0
20260902201237 18 0 0.0 0.0 0.00 0.00 0.00 78 950.0
20260902200802 18 0 0.0 0.0 0.00 0.00 0.00 77 950.0
20260902200238 18 0 0.0 0.0 0.00 0.00 0.00 77 950.0
20260902195758 18 0 0.0 0.0 0.00 0.00 0.00 77 950.0
20260902195238 18 0 0.0 0.0 0.00 0.00 0.00 76 950.0
20260902194741 18 0 0.0 0.0 0.00 0.00 0.00 76 950.0
20260902194238 18 0 0.0 0.0 0.00 0.00 0.00 75 950.0
20260902193739 18 0 0.0 0.0 0.00 0.00 0.00 75 950.0
20260902193239 18 0 0.0 0.0 0.00 0.00 0.00 75 950.0
20260902192738 18 0 0.0 0.0 0.00 0.00 0.00 75 950.0
20260902192256 18 0 0.0 0.0 0.00 0.00 0.00 75 950.0
20260902191739 18 0 0.0 0.0 0.00 0.00 0.00 74 950.0
20260902191242 18 0 0.0 0.0 0.00 0.00 0.00 74 950.0
20260902190737 18 0 0.0 0.0 0.00 0.00 0.00 74 950.0
20260902190239 18 0 0.0 0.0 0.00 0.00 0.00 73 950.0
20260902185737 18 0 0.0 0.0 0.00 0.00 0.00 72 950.0
20260902185238 18 0 0.0 0.0 0.00 0.00 0.00 72 950.0
20260902184801 19 0 0.0 0.0 0.00 0.00 0.00 71 949.0